Time;durP1;ratioP1;P1;durP2;ratioP2;P2;SDS_P1;SDS_P2;PMS_P1;PMS_P2;Temp;Humidity;BMP_temperature;BMP_pressure;BME280_temperature;BME280_humidity;BME280_pressure;Samples;Min_cycle;Max_cycle;Signal;HPM_P1;HPM_P2
2022/03/29 00:01:01;;;;;;;4.20;4.00;;;;;;;8.83;79.66;101058.72;6103395;23;20140;-66
2022/03/29 00:03:28;;;;;;;4.00;3.80;;;;;;;8.92;78.82;101079.28;6109124;23;20628;-66
2022/03/29 00:05:54;;;;;;;4.63;4.43;;;;;;;8.79;80.14;101061.44;6112989;23;20013;-66
2022/03/29 00:08:21;;;;;;;4.63;4.43;;;;;;;9.23;80.07;101144.41;6116072;23;20529;-65
2022/03/29 00:10:48;;;;;;;5.90;5.63;;;;;;;9.23;80.19;101148.81;6105179;23;20068;-65
2022/03/29 00:13:14;;;;;;;4.40;4.20;;;;;;;9.11;80.66;101143.13;6115272;23;20019;-65
2022/03/29 00:15:41;;;;;;;6.10;5.63;;;;;;;9.05;81.89;101159.06;6102062;23;20036;-67
2022/03/29 00:18:25;;;;;;;4.50;4.30;;;;;;;8.92;81.37;101121.16;6095596;23;20024;-65
2022/03/29 00:20:51;;;;;;;5.57;5.28;;;;;;;8.77;80.87;101099.91;6104600;23;20105;-68
2022/03/29 00:23:18;;;;;;;4.68;4.47;;;;;;;8.42;81.30;101048.06;6116744;23;20104;-66
2022/03/29 00:25:44;;;;;;;5.95;5.65;;;;;;;8.70;81.34;101093.22;6106028;23;20025;-66
2022/03/29 00:28:11;;;;;;;4.50;4.30;;;;;;;8.88;81.80;101120.47;6110778;23;20024;-65
2022/03/29 00:30:38;;;;;;;4.95;4.60;;;;;;;8.84;81.75;101123.22;6109463;23;20027;-65
2022/03/29 00:33:05;;;;;;;4.13;3.92;;;;;;;8.73;82.39;101102.72;6112127;23;20231;-66
2022/03/29 00:35:31;;;;;;;3.95;3.80;;;;;;;8.82;81.53;101111.97;6112976;23;20447;-66
2022/03/29 00:37:58;;;;;;;4.30;4.05;;;;;;;8.60;81.71;101076.19;6118296;23;20122;-66
2022/03/29 00:40:24;;;;;;;4.00;3.80;;;;;;;8.63;82.09;101083.91;6087724;23;20013;-66
2022/03/29 00:42:51;;;;;;;6.15;5.75;;;;;;;8.78;81.66;101108.66;6115369;23;20185;-66
2022/03/29 00:45:17;;;;;;;4.65;4.45;;;;;;;8.59;82.37;101074.47;6114492;23;20014;-66
2022/03/29 00:47:44;;;;;;;5.80;5.55;;;;;;;8.82;82.00;101104.13;6110311;23;20045;-66
2022/03/29 00:50:11;;;;;;;4.25;4.05;;;;;;;8.67;81.75;101082.88;6116795;23;20041;-66
2022/03/29 00:52:39;;;;;;;4.65;4.45;;;;;;;8.81;81.79;101105.91;6115891;23;20122;-66
2022/03/29 00:55:06;;;;;;;4.00;3.80;;;;;;;8.73;82.10;101095.72;6111494;23;20037;-66
2022/03/29 00:57:34;;;;;;;4.05;3.85;;;;;;;8.76;82.73;101102.63;6115272;23;20137;-66
2022/03/29 01:00:02;;;;;;;4.45;4.15;;;;;;;8.48;83.34;101076.63;6093276;23;20026;-66
2022/03/29 01:02:28;;;;;;;3.95;3.78;;;;;;;8.54;84.52;101100.81;6119873;23;20056;-66
2022/03/29 01:04:55;;;;;;;4.05;3.85;;;;;;;8.57;84.09;101094.59;6117153;23;20021;-66
2022/03/29 01:07:22;;;;;;;4.65;4.43;;;;;;;8.53;83.59;101090.38;6095780;23;20181;-66
2022/03/29 01:09:48;;;;;;;5.82;5.53;;;;;;;8.51;84.38;101090.44;6112411;23;20084;-66
2022/03/29 01:12:15;;;;;;;4.95;4.65;;;;;;;8.39;85.31;101073.41;6103806;23;20490;-66
2022/03/29 01:14:42;;;;;;;5.97;5.68;;;;;;;8.32;84.49;101052.78;6111148;23;20029;-65
2022/03/29 01:19:58;;;;;;;4.00;3.80;;;;;;;8.46;84.04;101087.16;6109211;23;20297;-66
2022/03/29 01:22:25;;;;;;;4.35;4.15;;;;;;;8.36;84.67;101060.44;6117891;23;20100;-66
2022/03/29 01:24:52;;;;;;;5.70;5.40;;;;;;;7.34;84.86;100887.38;6106994;23;20027;-65
2022/03/29 01:27:20;;;;;;;4.57;4.38;;;;;;;8.38;85.22;101081.31;6119088;23;20498;-65
2022/03/29 01:29:49;;;;;;;5.95;5.65;;;;;;;7.53;84.95;100927.56;6109071;23;20018;-65
2022/03/29 01:32:16;;;;;;;5.15;4.88;;;;;;;8.38;84.32;101069.09;6112234;23;20014;-65
2022/03/29 01:34:43;;;;;;;5.53;5.22;;;;;;;8.16;84.30;101031.59;6119602;23;20030;-66
2022/03/29 01:37:10;;;;;;;4.78;4.55;;;;;;;8.33;85.30;101055.31;6113863;23;20025;-66
2022/03/29 01:39:38;;;;;;;4.63;4.43;;;;;;;8.03;85.14;101020.69;6118799;23;20013;-65
2022/03/29 01:42:06;;;;;;;3.80;3.70;;;;;;;8.26;85.23;101047.75;6119595;23;20030;-67
2022/03/29 01:44:32;;;;;;;4.20;4.00;;;;;;;7.92;84.92;100994.97;6089218;23;20458;-67
2022/03/29 01:46:59;;;;;;;4.15;3.95;;;;;;;8.24;85.59;101050.44;6117930;23;20609;-67
2022/03/29 01:49:26;;;;;;;4.10;3.90;;;;;;;7.49;85.70;100936.41;6115313;23;20352;-67
2022/03/29 01:51:53;;;;;;;6.28;5.97;;;;;;;8.18;86.52;101048.06;6116368;23;20021;-67
2022/03/29 01:54:19;;;;;;;3.70;3.60;;;;;;;7.93;85.72;101008.88;6117144;23;20029;-66
2022/03/29 01:56:46;;;;;;;5.03;4.82;;;;;;;8.13;86.15;101042.97;6119042;23;20080;-66
2022/03/29 01:59:12;;;;;;;3.75;3.65;;;;;;;8.09;86.45;101030.94;6119619;23;20474;-66
2022/03/29 02:01:43;;;;;;;4.72;4.53;;;;;;;8.07;85.94;101024.06;6110891;23;20028;-66
2022/03/29 02:04:10;;;;;;;4.30;4.10;;;;;;;7.94;85.92;100995.78;6104807;23;20013;-67
2022/03/29 02:06:36;;;;;;;3.97;3.85;;;;;;;8.12;86.26;101027.38;6114576;23;20050;-67
2022/03/29 02:09:06;;;;;;;4.20;4.00;;;;;;;7.98;85.93;100999.97;6112673;23;20027;-67
2022/03/29 02:11:35;;;;;;;4.07;3.88;;;;;;;8.12;85.61;101023.00;6104125;23;20076;-67
2022/03/29 02:14:02;;;;;;;3.70;3.58;;;;;;;8.14;85.97;101020.34;6112237;23;20194;-66
2022/03/29 02:16:29;;;;;;;4.80;4.50;;;;;;;8.13;85.49;101024.69;6127883;23;20048;-67
2022/03/29 02:18:55;;;;;;;4.10;3.90;;;;;;;8.05;86.14;100999.75;6104758;23;20033;-69
2022/03/29 02:21:22;;;;;;;4.72;4.53;;;;;;;8.15;86.27;101017.63;6114262;23;20013;-66
2022/03/29 02:23:48;;;;;;;5.78;5.47;;;;;;;7.83;85.59;100963.94;6119988;23;20446;-68
2022/03/29 02:26:14;;;;;;;4.20;4.00;;;;;;;8.12;85.53;100998.63;6112286;23;20088;-65
2022/03/29 02:28:42;;;;;;;5.63;5.13;;;;;;;8.15;85.63;101009.78;6115544;23;20153;-65
2022/03/29 02:31:08;;;;;;;4.70;4.50;;;;;;;7.99;86.05;100979.91;6107199;23;20423;-65
2022/03/29 02:33:35;;;;;;;4.10;3.90;;;;;;;8.14;85.92;101013.34;6110749;23;20042;-65
2022/03/29 02:36:02;;;;;;;3.70;3.60;;;;;;;7.78;85.65;100940.59;6120621;23;20021;-66
2022/03/29 02:38:28;;;;;;;4.10;3.90;;;;;;;8.18;86.08;100998.41;6109357;23;20028;-66
2022/03/29 02:40:57;;;;;;;4.10;3.90;;;;;;;8.15;85.06;100999.34;6121334;23;20088;-68
2022/03/29 02:43:25;;;;;;;3.70;3.60;;;;;;;8.09;85.74;100977.81;6124614;23;20451;-67
2022/03/29 02:45:51;;;;;;;6.15;5.85;;;;;;;7.76;85.60;100921.53;6112471;23;20035;-67
2022/03/29 02:48:18;;;;;;;5.00;4.50;;;;;;;8.14;84.93;100986.34;6117951;23;20084;-67
2022/03/29 02:50:45;;;;;;;5.30;5.10;;;;;;;8.14;85.84;101002.03;6111053;23;20018;-66
2022/03/29 02:53:11;;;;;;;3.97;3.78;;;;;;;8.14;85.61;100986.34;6113734;23;20010;-67
2022/03/29 02:55:38;;;;;;;4.53;4.32;;;;;;;8.13;86.19;100979.41;6115685;23;20056;-66
2022/03/29 02:58:05;;;;;;;3.90;3.70;;;;;;;8.13;85.38;100975.00;6109638;23;20076;-67
2022/03/29 03:00:31;;;;;;;4.20;4.00;;;;;;;7.76;85.41;100912.84;6125723;23;20037;-67
2022/03/29 03:02:58;;;;;;;4.32;4.13;;;;;;;8.15;85.57;100977.56;6109221;23;20379;-66
2022/03/29 03:05:24;;;;;;;3.95;3.75;;;;;;;8.14;84.68;100970.66;6094009;23;20040;-67
2022/03/29 03:07:52;;;;;;;5.60;5.35;;;;;;;8.14;86.10;100971.50;6115723;23;20071;-66
2022/03/29 03:10:19;;;;;;;4.10;3.90;;;;;;;8.12;85.44;100968.09;6117725;23;20014;-67
2022/03/29 03:12:47;;;;;;;11.73;7.05;;;;;;;8.14;85.75;100970.66;6114228;23;20036;-66
2022/03/29 03:15:16;;;;;;;4.10;3.90;;;;;;;8.14;85.50;100965.44;6126153;23;20049;-66
2022/03/29 03:17:43;;;;;;;5.35;5.05;;;;;;;8.13;84.90;100966.34;6117062;23;20215;-66
2022/03/29 03:20:11;;;;;;;4.10;3.90;;;;;;;7.90;85.87;100925.38;6123298;23;20411;-67
2022/03/29 03:22:41;;;;;;;4.03;3.88;;;;;;;8.12;86.00;100959.41;6112880;23;20049;-68
2022/03/29 03:25:09;;;;;;;4.57;4.38;;;;;;;7.98;85.70;100932.03;6114002;23;20021;-66
2022/03/29 03:27:36;;;;;;;4.65;4.45;;;;;;;8.10;85.85;100950.78;6116648;23;20077;-66
2022/03/29 03:30:04;;;;;;;3.90;3.78;;;;;;;8.14;85.43;100949.75;6112390;23;20398;-67
2022/03/29 03:32:31;;;;;;;3.92;3.78;;;;;;;8.15;85.24;100948.81;6119763;23;20096;-67
2022/03/29 03:34:58;;;;;;;6.35;5.85;;;;;;;8.01;85.37;100927.59;6088018;23;20018;-66
2022/03/29 03:37:26;;;;;;;4.43;4.22;;;;;;;8.06;84.93;100933.47;6109943;23;20345;-67
2022/03/29 03:39:53;;;;;;;5.18;4.97;;;;;;;7.90;85.78;100897.50;6112693;23;20020;-66
2022/03/29 03:42:20;;;;;;;3.90;3.80;;;;;;;7.69;85.25;100864.31;6112783;23;20511;-67
2022/03/29 03:44:46;;;;;;;5.35;5.15;;;;;;;8.13;85.46;100945.41;6110814;23;20005;-66
2022/03/29 03:47:13;;;;;;;3.85;3.72;;;;;;;8.09;85.30;100943.84;6118384;23;20014;-66
2022/03/29 03:49:39;;;;;;;5.05;4.75;;;;;;;8.09;85.19;100931.59;6112534;23;20088;-66
2022/03/29 03:52:09;;;;;;;4.00;3.80;;;;;;;8.08;85.09;100931.66;6123003;23;20029;-66
2022/03/29 03:54:37;;;;;;;4.30;4.10;;;;;;;8.08;85.66;100936.88;6095451;23;20036;-66
2022/03/29 03:57:04;;;;;;;4.00;3.80;;;;;;;8.07;85.41;100930.81;6118584;23;20041;-66
2022/03/29 03:59:31;;;;;;;4.13;3.92;;;;;;;7.92;85.71;100903.50;6101360;23;20029;-69
2022/03/29 04:01:58;;;;;;;4.38;4.18;;;;;;;8.11;85.02;100928.94;6109501;23;20730;-67
2022/03/29 04:04:25;;;;;;;3.92;3.72;;;;;;;7.86;85.17;100876.75;6111228;23;20009;-68
2022/03/29 04:06:51;;;;;;;5.95;5.65;;;;;;;7.76;85.66;100876.25;6109132;23;20423;-67
2022/03/29 04:09:18;;;;;;;3.85;3.75;;;;;;;8.06;85.22;100917.78;6116434;23;20045;-68
2022/03/29 04:11:45;;;;;;;6.10;5.80;;;;;;;7.93;84.97;100894.75;6118055;23;20035;-68
2022/03/29 04:14:11;;;;;;;4.75;4.55;;;;;;;7.99;85.70;100899.72;6132080;23;20064;-68
2022/03/29 04:16:38;;;;;;;4.00;3.80;;;;;;;7.96;85.69;100904.25;6125843;23;20096;-68
2022/03/29 04:19:04;;;;;;;3.83;3.70;;;;;;;7.34;85.58;100803.84;6107403;23;20021;-69
2022/03/29 04:21:30;;;;;;;3.95;3.75;;;;;;;7.88;85.12;100894.09;6115885;23;20506;-68
2022/03/29 04:23:59;;;;;;;4.10;3.90;;;;;;;7.86;85.64;100893.28;6114706;23;20025;-68
2022/03/29 04:26:26;;;;;;;5.18;4.88;;;;;;;7.51;85.79;100843.19;6107873;23;20355;-68
2022/03/29 04:28:52;;;;;;;5.07;4.88;;;;;;;7.77;86.15;100893.63;6112603;23;20098;-69
2022/03/29 04:31:18;;;;;;;3.75;3.65;;;;;;;7.55;85.65;100863.06;6102832;23;20009;-68
2022/03/29 04:33:45;;;;;;;5.30;5.10;;;;;;;7.36;86.10;100841.19;6108605;23;20100;-68
2022/03/29 04:36:12;;;;;;;3.90;3.70;;;;;;;7.42;86.56;100847.91;6111430;23;20494;-68
2022/03/29 04:38:38;;;;;;;4.88;4.68;;;;;;;7.30;86.96;100837.03;6107572;23;20073;-69
2022/03/29 04:41:05;;;;;;;3.63;3.53;;;;;;;7.45;86.38;100856.47;6115376;23;20044;-68
2022/03/29 04:43:32;;;;;;;3.80;3.70;;;;;;;7.05;87.50;100805.72;6111540;23;20029;-68
2022/03/29 04:46:01;;;;;;;4.47;4.28;;;;;;;7.19;86.95;100826.94;6108273;23;21469;-68
2022/03/29 04:48:29;;;;;;;4.47;4.28;;;;;;;7.24;87.54;100846.84;6118322;23;20377;-67
2022/03/29 04:50:56;;;;;;;4.85;4.65;;;;;;;7.10;87.75;100823.84;6110401;23;20266;-67
2022/03/29 04:53:22;;;;;;;4.25;4.05;;;;;;;7.34;87.89;100869.09;6116464;23;20029;-66
2022/03/29 04:55:50;;;;;;;5.32;5.13;;;;;;;7.15;89.30;100843.63;6108531;23;20032;-67
2022/03/29 04:58:17;;;;;;;3.92;3.72;;;;;;;7.28;88.26;100872.78;6111087;23;20025;-67
2022/03/29 05:00:44;;;;;;;4.70;4.50;;;;;;;6.91;89.17;100807.97;6112997;23;20013;-67
2022/03/29 05:03:10;;;;;;;4.03;3.83;;;;;;;7.21;89.95;100854.78;6106848;23;20009;-68
2022/03/29 05:05:37;;;;;;;3.97;3.85;;;;;;;6.96;89.21;100817.34;6112202;23;20293;-66
2022/03/29 05:08:07;;;;;;;4.25;4.05;;;;;;;6.92;89.58;100807.09;6092911;23;20020;-65
2022/03/29 05:10:33;;;;;;;4.07;3.88;;;;;;;6.82;90.83;100792.66;6110423;23;20017;-67
2022/03/29 05:13:00;;;;;;;4.13;3.92;;;;;;;7.15;91.01;100848.84;6113409;23;20103;-67
2022/03/29 05:15:26;;;;;;;4.35;4.15;;;;;;;7.11;90.26;100844.66;6086145;23;20013;-66
2022/03/29 05:17:53;;;;;;;5.78;5.55;;;;;;;6.13;91.40;100679.44;6099519;23;20029;-67
2022/03/29 05:20:19;;;;;;;6.53;6.13;;;;;;;7.05;91.76;100833.59;6110939;23;20086;-67
2022/03/29 05:22:51;;;;;;;5.13;4.93;;;;;;;6.92;92.07;100820.97;6107239;23;20034;-66
2022/03/29 05:25:23;;;;;;;4.03;3.83;;;;;;;6.92;92.69;100831.41;6113629;23;20013;-67
2022/03/29 05:27:53;;;;;;;5.85;5.55;;;;;;;7.07;92.23;100855.25;6105149;23;20118;-69
2022/03/29 05:30:20;;;;;;;4.05;3.85;;;;;;;7.09;92.05;100848.22;6109900;23;20025;-69
2022/03/29 05:32:51;;;;;;;5.18;4.97;;;;;;;7.05;92.65;100842.25;6119238;23;20539;-67
2022/03/29 05:35:17;;;;;;;3.83;3.63;;;;;;;7.05;92.51;100844.03;6120946;23;20076;-66
2022/03/29 05:37:44;;;;;;;5.65;5.45;;;;;;;7.08;93.29;100849.16;6108770;23;20071;-66
2022/03/29 05:40:11;;;;;;;3.92;3.72;;;;;;;7.10;92.29;100845.56;6117682;23;20017;-65
2022/03/29 05:42:43;;;;;;;4.63;4.43;;;;;;;7.16;93.67;100847.97;6115081;23;20059;-66
2022/03/29 05:45:12;;;;;;;3.72;3.63;;;;;;;7.27;93.71;100847.56;6119762;23;20096;-66
2022/03/29 05:50:27;;;;;;;3.70;3.60;;;;;;;7.27;91.40;100811.00;6115392;23;20025;-65
2022/03/29 05:52:55;;;;;;;5.22;5.00;;;;;;;7.19;90.78;100790.41;6118612;23;20479;-65
2022/03/29 05:55:23;;;;;;;3.50;3.40;;;;;;;7.57;90.79;100856.03;6106061;23;20233;-65
2022/03/29 05:57:50;;;;;;;5.75;5.53;;;;;;;7.62;89.93;100850.66;6113778;23;20029;-65
2022/03/29 06:00:18;;;;;;;4.00;3.80;;;;;;;7.65;89.43;100842.69;6117932;23;20024;-65
2022/03/29 06:02:44;;;;;;;5.25;5.05;;;;;;;7.63;89.61;100838.44;6112940;23;20404;-65
2022/03/29 06:05:11;;;;;;;4.40;4.10;;;;;;;7.67;89.42;100855.69;6110489;23;20517;-65
2022/03/29 06:07:38;;;;;;;5.35;5.07;;;;;;;7.77;89.49;100851.81;6114411;23;20037;-65
2022/03/29 06:10:06;;;;;;;3.63;3.53;;;;;;;7.69;88.66;100857.34;6114360;23;20108;-65
2022/03/29 06:12:33;;;;;;;4.20;3.97;;;;;;;7.64;89.18;100843.59;6116112;23;20014;-64
2022/03/29 06:15:08;;;;;;;4.10;3.90;;;;;;;7.83;88.46;100862.03;6114771;23;20193;-65
2022/03/29 06:17:35;;;;;;;4.65;4.35;;;;;;;7.71;89.59;100886.88;6117890;23;20024;-65
2022/03/29 06:20:04;;;;;;;4.15;3.95;;;;;;;7.75;89.88;100867.56;6111321;23;20221;-64
2022/03/29 06:22:31;;;;;;;4.32;4.13;;;;;;;7.80;90.22;100867.41;6109018;23;20038;-66
2022/03/29 06:24:58;;;;;;;4.70;4.45;;;;;;;7.73;89.36;100853.69;6108965;23;20025;-66
2022/03/29 06:27:26;;;;;;;9.93;4.85;;;;;;;8.07;88.59;100872.47;6104168;23;20196;-64
2022/03/29 06:29:56;;;;;;;6.10;5.80;;;;;;;8.25;88.22;100874.34;6093044;23;20091;-64
2022/03/29 06:32:23;;;;;;;5.07;4.78;;;;;;;8.38;87.38;100870.34;6097353;23;20034;-64
2022/03/29 06:34:50;;;;;;;5.53;5.32;;;;;;;8.27;85.77;100833.31;6100195;23;20148;-64
2022/03/29 06:37:16;;;;;;;4.05;3.85;;;;;;;8.49;86.15;100861.25;6113158;23;20025;-64
2022/03/29 06:39:43;;;;;;;5.85;5.55;;;;;;;8.65;85.05;100870.16;6097543;23;20196;-65
2022/03/29 06:42:10;;;;;;;4.78;4.57;;;;;;;8.37;85.14;100837.25;6080560;23;20037;-65
2022/03/29 06:44:36;;;;;;;4.75;4.45;;;;;;;8.57;85.08;100867.00;6107596;23;20461;-64
2022/03/29 06:47:03;;;;;;;4.43;4.22;;;;;;;8.75;85.46;100875.84;6117151;23;20457;-64
2022/03/29 06:49:30;;;;;;;4.20;4.00;;;;;;;8.93;84.47;100874.22;6114756;23;20076;-65
2022/03/29 06:51:56;;;;;;;4.18;3.97;;;;;;;9.06;83.81;100878.03;6111482;23;20040;-66
2022/03/29 06:54:26;;;;;;;5.03;4.68;;;;;;;9.22;83.38;100874.72;6110810;23;20022;-65
2022/03/29 06:56:53;;;;;;;5.65;5.45;;;;;;;9.29;81.75;100865.72;6117942;23;20177;-65
2022/03/29 06:59:19;;;;;;;5.97;5.53;;;;;;;9.25;80.31;100849.28;6112049;23;20024;-65
2022/03/29 07:01:46;;;;;;;6.15;5.82;;;;;;;9.40;80.79;100850.34;6107330;23;20302;-65
2022/03/29 07:04:12;;;;;;;4.35;4.15;;;;;;;9.64;80.43;100881.59;6100835;23;20021;-65
2022/03/29 07:06:43;;;;;;;6.40;6.05;;;;;;;9.54;79.91;100847.97;6113462;23;20037;-64
2022/03/29 07:12:04;;;;;;;4.80;4.57;;;;;;;9.72;81.55;100871.63;6111249;23;20538;-65
2022/03/29 07:14:31;;;;;;;4.15;3.95;;;;;;;9.54;81.62;100852.34;6107533;23;20006;-64
2022/03/29 07:16:57;;;;;;;4.40;4.10;;;;;;;9.46;79.66;100871.06;6110830;23;20025;-64
2022/03/29 07:19:27;;;;;;;4.20;4.00;;;;;;;9.49;80.57;100868.28;6098797;23;20009;-64
2022/03/29 07:21:54;;;;;;;5.10;4.90;;;;;;;9.41;80.43;100820.63;6073158;23;20189;-67
2022/03/29 07:24:21;;;;;;;4.55;4.35;;;;;;;9.74;79.75;100870.66;6075255;23;20497;-64
2022/03/29 07:26:48;;;;;;;6.45;6.15;;;;;;;9.75;79.28;100864.47;6073233;23;20577;-65
2022/03/29 07:29:16;;;;;;;4.90;4.60;;;;;;;9.76;78.46;100853.09;6077597;23;20051;-64
2022/03/29 07:31:43;;;;;;;4.75;4.55;;;;;;;9.91;77.81;100855.91;6062794;23;20039;-65
2022/03/29 07:34:09;;;;;;;4.43;4.22;;;;;;;10.03;78.08;100857.94;6073614;23;20006;-65
2022/03/29 07:36:36;;;;;;;4.82;4.63;;;;;;;9.58;77.47;100820.72;6076363;23;20037;-65
2022/03/29 07:39:03;;;;;;;4.50;4.30;;;;;;;9.90;78.36;100862.94;6056146;23;20031;-65
2022/03/29 07:41:30;;;;;;;4.80;4.55;;;;;;;9.90;78.31;100862.94;6078208;23;20010;-66
2022/03/29 07:43:57;;;;;;;6.65;6.30;;;;;;;9.87;78.30;100860.44;6068062;23;20242;-65
2022/03/29 07:46:23;;;;;;;5.13;4.82;;;;;;;9.97;79.03;100848.59;6068498;23;20110;-66
2022/03/29 07:48:50;;;;;;;5.57;5.38;;;;;;;10.18;77.51;100867.72;6077178;23;20030;-65
2022/03/29 07:51:36;;;;;;;9.95;5.30;;;;;;;10.03;76.46;100830.88;6078543;23;20369;-65
2022/03/29 07:54:03;;;;;;;4.43;4.13;;;;;;;10.15;75.42;100859.97;6077231;23;20077;-65
2022/03/29 07:56:30;;;;;;;4.25;3.88;;;;;;;10.26;76.08;100856.84;6084719;23;20038;-65
2022/03/29 07:58:57;;;;;;;4.95;4.75;;;;;;;10.21;76.54;100832.63;6081077;23;20029;-64
2022/03/29 08:01:24;;;;;;;4.78;4.57;;;;;;;10.42;76.60;100850.88;6087103;23;20476;-65
2022/03/29 08:03:51;;;;;;;5.75;5.45;;;;;;;10.45;76.41;100843.72;6080127;23;20032;-63
2022/03/29 08:06:18;;;;;;;5.28;4.97;;;;;;;10.54;75.46;100829.28;6082260;23;20030;-65
2022/03/29 08:08:44;;;;;;;5.95;5.65;;;;;;;10.59;74.38;100827.28;6085867;23;20025;-65
2022/03/29 08:11:11;;;;;;;4.40;4.20;;;;;;;10.85;73.40;100856.63;6079035;23;20201;-65
2022/03/29 08:13:38;;;;;;;6.50;6.05;;;;;;;10.73;72.62;100819.56;6086263;23;20103;-66
2022/03/29 08:16:05;;;;;;;4.80;4.55;;;;;;;10.93;71.20;100850.06;6095257;23;20589;-66
2022/03/29 08:18:32;;;;;;;4.80;4.53;;;;;;;10.96;71.04;100849.91;6053220;23;20270;-66
2022/03/29 08:20:58;;;;;;;5.65;5.35;;;;;;;11.21;70.76;100832.03;6117899;23;20561;-65
2022/03/29 08:23:26;;;;;;;4.75;4.55;;;;;;;11.39;69.63;100844.19;6113340;23;20309;-66
2022/03/29 08:25:53;;;;;;;6.07;5.78;;;;;;;11.34;69.95;100838.31;6111881;23;20085;-66
2022/03/29 08:28:21;;;;;;;5.22;4.93;;;;;;;11.40;69.58;100837.97;6120325;23;20528;-65
2022/03/29 08:30:47;;;;;;;6.13;5.82;;;;;;;11.37;69.34;100835.53;6107872;23;20343;-64
2022/03/29 08:33:14;;;;;;;5.70;5.38;;;;;;;11.41;70.35;100825.72;6117186;23;20010;-65
2022/03/29 08:35:44;;;;;;;6.05;5.75;;;;;;;11.43;69.02;100834.34;6108796;23;20058;-65
2022/03/29 08:38:11;;;;;;;4.32;4.13;;;;;;;11.63;67.77;100828.03;6102585;23;20021;-67
2022/03/29 08:41:03;;;;;;;7.85;7.45;;;;;;;11.47;67.79;100812.25;6118585;23;20005;-67
2022/03/29 08:43:38;;;;;;;4.80;4.60;;;;;;;11.77;66.91;100830.75;6053306;23;20089;-66
2022/03/29 08:46:04;;;;;;;4.75;4.55;;;;;;;11.74;67.06;100808.06;6110952;23;20005;-66
2022/03/29 08:48:31;;;;;;;4.47;4.22;;;;;;;11.71;65.47;100823.19;6111557;23;20096;-66
2022/03/29 08:51:00;;;;;;;5.45;5.03;;;;;;;11.80;67.30;100817.41;6104428;23;20029;-65
2022/03/29 08:53:48;;;;;;;6.47;6.18;;;;;;;11.91;65.96;100824.75;6104809;23;20046;-66
2022/03/29 08:56:16;;;;;;;5.47;5.18;;;;;;;12.02;65.76;100824.97;6113595;23;20459;-66
2022/03/29 08:58:42;;;;;;;6.05;5.75;;;;;;;12.13;64.90;100827.88;6111189;23;20564;-65
2022/03/29 09:01:08;;;;;;;6.30;4.90;;;;;;;12.04;65.42;100817.00;6085450;23;20037;-67
2022/03/29 09:03:36;;;;;;;4.90;4.70;;;;;;;11.63;66.20;100810.47;6107192;23;20033;-67
2022/03/29 09:06:07;;;;;;;5.82;5.53;;;;;;;10.96;66.65;100752.75;6105162;23;20054;-66
2022/03/29 09:08:47;;;;;;;4.68;4.40;;;;;;;11.20;67.29;100806.66;6113440;23;20009;-65
2022/03/29 09:11:14;;;;;;;4.93;4.68;;;;;;;11.15;68.49;100805.13;6104331;23;20022;-66
2022/03/29 09:13:41;;;;;;;8.15;7.63;;;;;;;11.24;70.30;100797.69;6111752;23;20295;-66
2022/03/29 09:16:27;;;;;;;5.10;4.80;;;;;;;11.46;68.85;100798.22;6097023;23;20021;-66
2022/03/29 09:18:55;;;;;;;6.85;6.45;;;;;;;11.67;67.82;100805.88;6117780;23;20009;-66
2022/03/29 09:21:24;;;;;;;5.60;5.30;;;;;;;11.67;66.53;100780.44;6092687;23;20013;-66
2022/03/29 09:24:07;;;;;;;6.13;5.82;;;;;;;12.14;66.23;100800.59;6111299;23;20292;-65
2022/03/29 09:26:40;;;;;;;5.88;5.47;;;;;;;12.09;66.04;100792.16;6113653;23;20088;-66
2022/03/29 09:29:14;;;;;;;4.95;4.75;;;;;;;12.36;65.51;100783.59;6115712;23;20025;-66
2022/03/29 09:31:42;;;;;;;6.00;5.68;;;;;;;12.40;64.74;100798.25;6110617;23;20013;-66
2022/03/29 09:34:12;;;;;;;5.88;5.47;;;;;;;12.55;64.22;100797.38;6107798;23;20009;-67
2022/03/29 09:36:48;;;;;;;5.78;5.47;;;;;;;12.88;63.59;100790.19;6113446;23;20307;-66
2022/03/29 09:39:37;;;;;;;5.65;5.03;;;;;;;13.12;61.34;100803.66;6106349;23;20296;-65
2022/03/29 09:42:09;;;;;;;5.03;4.82;;;;;;;13.42;61.44;100792.19;6105475;23;20041;-65
2022/03/29 09:44:41;;;;;;;5.53;5.22;;;;;;;13.01;60.97;100754.25;6114513;23;20037;-67
2022/03/29 09:47:10;;;;;;;4.97;4.78;;;;;;;13.09;60.17;100759.91;6111191;23;20041;-67
2022/03/29 09:49:56;;;;;;;5.30;5.07;;;;;;;13.11;60.48;100779.09;6108536;23;20228;-68
2022/03/29 09:52:26;;;;;;;5.43;5.13;;;;;;;13.16;59.80;100782.28;6111914;23;20040;-70
2022/03/29 09:55:21;;;;;;;6.07;5.75;;;;;;;13.15;59.34;100780.59;6106312;23;20300;-69
2022/03/29 09:57:59;;;;;;;14.63;6.75;;;;;;;13.55;59.75;100775.50;6110915;23;20032;-70
2022/03/29 10:00:29;;;;;;;6.20;5.60;;;;;;;13.62;57.33;100770.69;6115250;23;20041;-70
2022/03/29 10:02:57;;;;;;;6.05;5.55;;;;;;;13.73;57.15;100749.75;6109426;23;20021;-70
2022/03/29 10:05:25;;;;;;;5.60;5.30;;;;;;;13.91;56.18;100731.88;6082687;23;20025;-70
2022/03/29 10:10:48;;;;;;;6.70;6.40;;;;;;;13.99;56.31;100746.34;6100039;23;20033;-70
2022/03/29 10:13:17;;;;;;;5.47;5.18;;;;;;;14.34;55.23;100758.06;6108173;23;20367;-66
2022/03/29 10:15:45;;;;;;;6.15;5.75;;;;;;;14.42;55.16;100746.13;6099189;23;20341;-66
2022/03/29 10:18:12;;;;;;;5.15;4.95;;;;;;;14.33;54.63;100707.97;6118734;23;20304;-66
2022/03/29 10:20:40;;;;;;;6.60;6.00;;;;;;;14.39;55.43;100746.34;6110245;23;20023;-66
2022/03/29 10:23:07;;;;;;;6.68;5.35;;;;;;;14.56;53.30;100751.34;6112377;23;20022;-66
2022/03/29 10:25:34;;;;;;;5.15;4.88;;;;;;;14.45;51.70;100730.06;6101951;23;20086;-66
2022/03/29 10:28:02;;;;;;;5.30;5.00;;;;;;;14.83;51.05;100703.69;6100551;23;20036;-66
2022/03/29 10:30:32;;;;;;;4.70;4.50;;;;;;;15.45;49.54;100737.19;6113340;23;20084;-66
2022/03/29 10:33:34;;;;;;;5.53;5.22;;;;;;;15.51;50.03;100722.69;6098380;23;20419;-67
2022/03/29 10:36:11;;;;;;;5.35;5.05;;;;;;;15.89;48.89;100721.69;6051934;23;21808;-67
2022/03/29 10:38:46;;;;;;;5.45;5.15;;;;;;;16.14;46.83;100726.03;6082922;23;20748;-66
2022/03/29 10:41:33;;;;;;;5.40;5.00;;;;;;;16.37;46.57;100721.63;6114009;23;20051;-67
2022/03/29 10:44:04;;;;;;;6.30;5.90;;;;;;;16.21;44.34;100713.16;6105041;23;20077;-67
2022/03/29 10:46:51;;;;;;;5.05;4.85;;;;;;;16.41;43.30;100696.59;6112988;23;20022;-67
2022/03/29 10:49:32;;;;;;;6.38;5.97;;;;;;;16.35;43.39;100689.09;6115923;23;20017;-67
2022/03/29 10:52:04;;;;;;;5.80;5.35;;;;;;;16.01;43.26;100701.41;6110505;23;20032;-66
2022/03/29 10:54:33;;;;;;;5.63;5.32;;;;;;;16.11;44.12;100699.75;6115774;23;20275;-66
2022/03/29 10:57:02;;;;;;;5.50;5.20;;;;;;;15.96;44.56;100677.94;6120038;23;20025;-67
2022/03/29 10:59:30;;;;;;;5.40;5.10;;;;;;;16.30;44.49;100665.63;6135783;23;20052;-66
2022/03/29 11:02:12;;;;;;;6.03;5.72;;;;;;;15.61;43.79;100691.94;6133032;23;20029;-66
2022/03/29 11:05:08;;;;;;;6.07;5.72;;;;;;;16.24;43.81;100689.94;6083353;23;20043;-67
2022/03/29 11:07:59;;;;;;;5.40;5.10;;;;;;;16.09;44.39;100681.34;6107023;23;20026;-67
2022/03/29 11:10:43;;;;;;;5.40;5.10;;;;;;;16.95;41.79;100687.13;6101150;23;20096;-65
2022/03/29 11:13:30;;;;;;;5.20;5.00;;;;;;;16.47;43.24;100679.38;6110219;23;20029;-67
2022/03/29 11:16:01;;;;;;;6.47;6.03;;;;;;;16.20;43.93;100672.59;6120270;23;20033;-65
2022/03/29 11:18:30;;;;;;;5.38;5.07;;;;;;;15.51;45.95;100670.63;6119387;23;20017;-65
2022/03/29 11:21:03;;;;;;;5.82;5.53;;;;;;;15.47;49.98;100670.97;6124962;23;20414;-65
2022/03/29 11:23:33;;;;;;;7.57;7.00;;;;;;;15.03;54.63;100665.28;6117473;23;20025;-65
2022/03/29 11:26:14;;;;;;;8.43;7.35;;;;;;;14.42;58.30;100661.66;6116597;23;20034;-64
2022/03/29 11:28:55;;;;;;;8.75;7.80;;;;;;;14.39;57.92;100665.31;6104341;23;20089;-65
2022/03/29 11:31:23;;;;;;;7.35;6.85;;;;;;;14.32;59.52;100664.91;6104637;23;20021;-67
2022/03/29 11:33:50;;;;;;;10.27;7.80;;;;;;;14.45;59.06;100661.41;6104167;23;20092;-66
2022/03/29 11:36:20;;;;;;;7.65;7.15;;;;;;;14.30;59.75;100655.41;6108676;23;20063;-66
2022/03/29 11:38:47;;;;;;;8.65;7.97;;;;;;;13.84;60.65;100656.72;6108917;23;20021;-66
2022/03/29 11:41:29;;;;;;;6.30;5.82;;;;;;;14.05;59.99;100650.94;6103824;23;20030;-67
2022/03/29 11:44:06;;;;;;;6.68;6.32;;;;;;;14.45;59.26;100645.56;6110908;23;20680;-66
2022/03/29 11:46:50;;;;;;;7.03;6.53;;;;;;;14.54;58.43;100659.00;6127434;23;20009;-66
2022/03/29 11:49:18;;;;;;;5.40;5.10;;;;;;;14.04;59.15;100649.25;6117232;23;20293;-66
2022/03/29 11:52:04;;;;;;;8.45;8.00;;;;;;;13.62;61.27;100623.00;6116945;23;20029;-65